Time;durP1;ratioP1;P1;durP2;ratioP2;P2;SDS_P1;SDS_P2;PMS_P1;PMS_P2;Temp;Humidity;BMP_temperature;BMP_pressure;BME280_temperature;BME280_humidity;BME280_pressure;Samples;Min_cycle;Max_cycle;Signal;HPM_P1;HPM_P2
2022/02/12 00:01:08;;;;;;;;;;;;;;;-0.98;99.73;97161.31;10410923;28;1874;-67
2022/02/12 00:06:13;;;;;;;;;;;0.20;99.90;;;-0.94;100.00;97162.66;10411818;28;1781;-68
2022/02/12 00:11:16;;;;;;;;;;;0.30;99.90;;;-0.93;100.00;97157.19;10411759;28;1977;-67
2022/02/12 00:16:19;;;;;;;;;;;0.30;99.90;;;-0.94;100.00;97162.66;10408773;28;1852;-67
2022/02/12 00:21:24;;;;;;;;;;;;;;;-0.94;100.00;97162.66;10408390;28;1925;-70
2022/02/12 00:26:27;;;;;;;;;;;;;;;-0.95;99.74;97155.72;10424569;28;1911;-68
2022/02/12 00:31:31;;;;;;;;;;;;;;;-0.93;99.70;97149.28;10412757;28;2338;-68
2022/02/12 00:36:34;;;;;;;;;;;;;;;-1.00;99.83;97142.19;10408914;28;1765;-67
2022/02/12 00:41:38;;;;;;;;;;;;;;;-1.16;100.00;97140.38;10417253;28;1903;-68
2022/02/12 00:46:42;;;;;;;;;;;;;;;-1.25;100.00;97136.94;10416008;28;2047;-67
2022/02/12 00:51:45;;;;;;;;;;;;;;;-1.28;100.00;97139.91;10412497;28;1922;-68
2022/02/12 00:56:48;;;;;;;;;;;;;;;-1.25;100.00;97144.84;10408704;28;1913;-67
2022/02/12 01:01:52;;;;;;;;;;;;;;;-1.37;100.00;97136.44;10412081;28;1848;-68
2022/02/12 01:06:55;;;;;;;;;;;;;;;-1.49;100.00;97136.94;10397436;28;2017;-67
2022/02/12 01:12:01;;;;;;;;;;;;;;;-1.56;100.00;97135.97;10408838;28;1910;-68
2022/02/12 01:17:05;;;;;;;;;;;;;;;-1.63;100.00;97136.63;10428515;28;1999;-67
2022/02/12 01:22:08;;;;;;;;;;;;;;;-1.68;100.00;97138.91;10412875;28;1837;-67
2022/02/12 01:27:13;;;;;;;;;;;;;;;-1.69;100.00;97134.63;10416899;28;1917;-67
2022/02/12 01:32:17;;;;;;;;;;;;;;;-1.69;100.00;97131.16;10412990;28;1913;-68
2022/02/12 01:37:21;;;;;;;;;;;;;;;-1.76;100.00;97124.91;10462678;22;3577;-66
2022/02/12 01:42:24;;;;;;;;;;;;;;;-1.80;100.00;97119.13;10483639;28;1850;-66
2022/02/12 01:47:28;;;;;;;;;;;;;;;-1.73;100.00;97121.94;10483929;28;1846;-65
2022/02/12 01:52:32;;;;;;;;;;;;;;;-1.72;100.00;97118.31;10502670;28;1981;-67
2022/02/12 01:57:35;;;;;;;;;;;;;;;-1.68;100.00;97106.44;10515060;28;1901;-67
2022/02/12 02:02:38;;;;;;;;;;;;;;;-1.69;100.00;97094.25;10518377;28;1921;-66
2022/02/12 02:07:42;;;;;;;;;;;;;;;-1.75;100.00;97090.47;10516066;28;1865;-67
2022/02/12 02:12:45;;;;;;;;;;;;;;;-1.88;100.00;97090.13;10505356;28;1952;-67
2022/02/12 02:17:49;;;;;;;;;;;;;;;-1.91;100.00;97087.81;10492610;28;2011;-67
2022/02/12 02:22:55;;;;;;;;;;;;;;;-1.98;100.00;97086.81;10503277;28;1837;-66
2022/02/12 02:27:58;;;;;;;;;;;;;;;-2.04;100.00;97083.00;10516795;28;1936;-66
2022/02/12 02:33:02;;;;;;;;;;;;;;;-2.11;100.00;97084.66;10511941;28;1904;-66
2022/02/12 02:38:05;;;;;;;;;;;;;;;-2.11;100.00;97078.56;10515013;28;1892;-67
2022/02/12 02:43:09;;;;;;;;;;;;;;;-2.11;100.00;97091.72;10520343;28;1822;-68
2022/02/12 02:48:13;;;;;;;;;;;;;;;-2.13;100.00;97086.63;10505643;28;1890;-66
2022/02/12 02:58:38;;;;;;;;;;;;;;;-2.04;100.00;97079.56;10516656;28;1929;-66
2022/02/12 03:03:41;;;;;;;;;;;;;;;-1.99;100.00;97083.34;10517886;28;1852;-67
2022/02/12 03:08:44;;;;;;;;;;;;;;;-1.98;100.00;97078.91;10517902;28;1964;-66
2022/02/12 03:13:48;;;;;;;;;;;;;;;-2.09;100.00;97063.44;10491608;28;1986;-66
2022/02/12 03:18:51;;;;;;;;;;;;;;;-2.07;100.00;97069.34;10482310;28;2087;-64
2022/02/12 03:23:55;;;;;;;;;;;;;;;-1.99;100.00;97066.72;10478895;28;1867;-67
2022/02/12 03:28:58;;;;;;;;;;;;;;;-1.93;100.00;97058.16;10485501;28;1955;-67
2022/02/12 03:34:02;;;;;;;;;;;;;;;-1.92;100.00;97057.16;10499391;28;1852;-67
2022/02/12 03:39:05;;;;;;;;;;;;;;;-1.86;100.00;97051.25;10501855;28;2054;-66
2022/02/12 03:44:08;;;;;;;;;;;;;;;-1.86;100.00;97045.97;10496164;28;1979;-66
2022/02/12 03:49:11;;;;;;;;;;;-0.70;99.90;;;-1.81;100.00;97050.75;10488384;28;1970;-66
2022/02/12 03:54:14;;;;;;;;;;;-0.60;99.90;;;-1.86;100.00;97032.78;10481805;28;2017;-66
2022/02/12 03:59:17;;;;;;;;;;;-0.50;99.90;;;-1.88;100.00;97031.31;10486587;28;1924;-65
2022/02/12 04:04:19;;;;;;;;;;;-0.50;99.90;;;-1.90;100.00;97023.59;10484311;28;1934;-65
2022/02/12 04:09:22;;;;;;;;;;;-0.60;99.90;;;-1.92;100.00;97015.00;10481927;28;2021;-65
2022/02/12 04:14:25;;;;;;;;;;;-0.60;99.90;;;-1.94;100.00;97020.44;10489886;28;1868;-66
2022/02/12 04:19:28;;;;;;;;;;;-0.60;99.90;;;-1.94;100.00;97002.00;10491453;28;1892;-65
2022/02/12 04:24:31;;;;;;;;;;;-0.60;99.90;;;-1.99;100.00;97006.94;10482151;28;1852;-66
2022/02/12 04:29:34;;;;;;;;;;;-0.60;99.90;;;-1.95;100.00;97013.53;10487700;28;1911;-67
2022/02/12 04:34:36;;;;;;;;;;;-0.60;99.90;;;-2.00;100.00;97009.75;10482044;28;1943;-65
2022/02/12 04:39:39;;;;;;;;;;;-0.60;99.90;;;-1.93;100.00;97008.09;10478137;28;1983;-67
2022/02/12 04:44:42;;;;;;;;;;;-0.60;99.90;;;-2.02;100.00;97003.81;10477952;28;2007;-66
2022/02/12 04:49:46;;;;;;;;;;;-0.70;99.90;;;-2.03;100.00;97002.19;10478609;28;1958;-65
2022/02/12 04:54:49;;;;;;;;;;;-0.20;99.90;;;-2.07;100.00;96993.78;10486643;28;1895;-66
2022/02/12 04:59:52;;;;;;;;;;;-0.70;99.90;;;-2.15;100.00;96980.59;10482396;28;2336;-66
2022/02/12 05:04:55;;;;;;;;;;;-0.80;99.90;;;-2.09;100.00;96981.75;10484287;28;2033;-66
2022/02/12 05:09:58;;;;;;;;;;;-0.80;99.90;;;-2.15;100.00;96977.97;10481750;28;2044;-65
2022/02/12 05:15:01;;;;;;;;;;;-0.80;99.90;;;-2.19;100.00;96977.47;10484632;28;1950;-66
2022/02/12 05:20:04;;;;;;;;;;;-0.70;99.90;;;-2.20;100.00;96986.34;10486565;28;2011;-67
2022/02/12 05:25:07;;;;;;;;;;;-0.90;99.90;;;-2.21;100.00;96963.66;10490279;28;1880;-67
2022/02/12 05:30:10;;;;;;;;;;;-0.80;99.90;;;-2.22;100.00;96967.28;10481848;28;1970;-67
2022/02/12 05:35:13;;;;;;;;;;;-0.90;99.90;;;-2.26;100.00;96960.66;10482033;28;1994;-66
2022/02/12 05:40:22;;;;;;;;;;;-0.90;99.90;;;-2.23;100.00;96960.38;10482295;28;2008;-66
2022/02/12 05:45:25;;;;;;;;;;;-0.90;99.90;;;-2.27;100.00;96959.03;10486383;28;1963;-67
2022/02/12 05:50:29;;;;;;;;;;;;;;;-2.30;100.00;96964.59;10486255;28;2034;-66
2022/02/12 05:55:33;;;;;;;;;;;-1.20;99.90;;;-2.37;100.00;96968.88;10482309;28;1892;-65
2022/02/12 06:00:36;;;;;;;;;;;-1.30;99.90;;;-2.22;100.00;96972.53;10481142;28;2191;-66
2022/02/12 06:05:39;;;;;;;;;;;-1.10;99.90;;;-2.40;100.00;96969.22;10483509;28;2186;-66
2022/02/12 06:10:41;;;;;;;;;;;-1.20;99.90;;;-2.40;100.00;96963.97;10486859;28;1998;-65
2022/02/12 06:15:44;;;;;;;;;;;-1.10;99.90;;;-2.37;100.00;96955.72;10483306;28;1995;-66
2022/02/12 06:20:47;;;;;;;;;;;-1.20;99.90;;;-2.44;100.00;96957.38;10481057;28;1977;-66
2022/02/12 06:25:50;;;;;;;;;;;-1.20;99.90;;;-2.49;100.00;96957.84;10497540;28;1983;-66
2022/02/12 06:30:53;;;;;;;;;;;-1.20;99.90;;;-2.41;100.00;96945.69;10487710;28;1920;-65
2022/02/12 06:35:56;;;;;;;;;;;-1.20;99.90;;;-2.40;100.00;96948.16;10484059;28;1945;-64
2022/02/12 06:40:59;;;;;;;;;;;-1.20;99.90;;;-2.39;100.00;96952.44;10480739;28;1876;-67
2022/02/12 06:46:02;;;;;;;;;;;-1.20;99.90;;;-2.30;100.00;96943.53;10482833;28;1948;-67
2022/02/12 06:51:05;;;;;;;;;;;-1.20;99.90;;;-2.33;100.00;96937.78;10478824;28;1971;-65
2022/02/12 06:56:08;;;;;;;;;;;-1.20;99.90;;;-2.17;100.00;96941.22;10484715;28;1903;-68
2022/02/12 07:01:15;;;;;;;;;;;-1.20;99.90;;;-2.09;100.00;96934.34;10479815;28;2088;-66
2022/02/12 07:06:18;;;;;;;;;;;-1.10;99.90;;;-1.99;100.00;96945.50;10481120;28;2046;-65
2022/02/12 07:11:21;;;;;;;;;;;-0.90;99.90;;;-2.03;100.00;96939.78;10485518;28;1975;-66
2022/02/12 07:16:24;;;;;;;;;;;-1.00;99.90;;;-2.00;100.00;96944.69;10480127;28;1883;-65
2022/02/12 07:21:27;;;;;;;;;;;-0.90;99.90;;;-1.96;100.00;96948.66;10476601;28;1864;-66
2022/02/12 07:26:30;;;;;;;;;;;-0.90;99.90;;;-2.06;100.00;96944.53;10483092;28;1924;-67
2022/02/12 07:31:34;;;;;;;;;;;-1.10;99.90;;;-1.98;100.00;96941.88;10473918;28;2025;-64
2022/02/12 07:36:36;;;;;;;;;;;-1.00;99.90;;;-2.09;100.00;96929.88;10474306;28;1939;-65
2022/02/12 07:41:40;;;;;;;;;;;-1.00;99.90;;;-2.08;100.00;96931.53;10480806;28;2065;-67
2022/02/12 07:46:43;;;;;;;;;;;-1.00;99.90;;;-2.07;100.00;96929.72;10486737;28;1904;-66
2022/02/12 07:51:47;;;;;;;;;;;-1.00;99.90;;;-2.09;100.00;96929.06;10486038;28;2050;-67
2022/02/12 07:56:53;;;;;;;;;;;-1.00;99.90;;;-2.23;100.00;96926.13;10479415;28;2027;-67
2022/02/12 08:01:57;;;;;;;;;;;-1.10;99.90;;;-2.25;100.00;96925.44;10480572;28;1853;-68
2022/02/12 08:12:22;;;;;;;;;;;-1.20;99.90;;;-1.93;100.00;96915.84;10477324;28;1962;-68
2022/02/12 08:17:25;;;;;;;;;;;-1.00;99.90;;;-1.93;100.00;96907.94;10474036;28;2000;-67
2022/02/12 08:22:27;;;;;;;;;;;-0.90;99.90;;;-1.85;100.00;96904.47;10469070;28;1841;-68
2022/02/12 08:27:30;;;;;;;;;;;-1.00;99.90;;;-1.70;100.00;96898.34;10474407;28;1869;-67
2022/02/12 08:32:33;;;;;;;;;;;-0.90;99.90;;;-1.59;100.00;96898.97;10477542;28;1902;-68
2022/02/12 08:37:40;;;;;;;;;;;-0.70;99.90;;;-1.46;100.00;96891.38;10478361;28;1801;-69
2022/02/12 08:42:44;;;;;;;;;;;-0.50;99.90;;;-1.18;100.00;96892.53;10475663;28;1799;-66
2022/02/12 08:47:47;;;;;;;;;;;-0.30;99.90;;;-1.11;100.00;96875.03;10476973;28;2055;-68
2022/02/12 08:52:50;;;;;;;;;;;-0.20;99.90;;;-0.91;100.00;96872.75;10480618;28;2005;-67
2022/02/12 08:57:53;;;;;;;;;;;0.00;99.90;;;-0.66;100.00;96860.22;10486460;28;1937;-66
2022/02/12 09:02:57;;;;;;;;;;;0.10;99.90;;;-0.46;98.98;96862.38;10489230;28;1920;-68
2022/02/12 09:08:00;;;;;;;;;;;0.30;99.90;;;-0.35;97.05;96854.03;10481948;28;2106;-69
2022/02/12 09:13:03;;;;;;;;;;;0.50;99.90;;;-0.19;96.16;96856.53;10473691;22;2194;-79
2022/02/12 09:18:06;;;;;;;;;;;0.70;99.90;;;0.01;95.27;96845.44;10437789;28;1805;-79
2022/02/12 09:23:09;;;;;;;;;;;0.90;99.90;;;0.21;94.43;96838.59;10433213;28;1822;-80
2022/02/12 09:28:13;;;;;;;;;;;1.00;99.90;;;0.27;93.51;96829.94;10438688;28;1587;-80
2022/02/12 09:33:16;;;;;;;;;;;1.20;99.90;;;0.54;92.16;96826.63;10427076;28;1948;-82
2022/02/12 09:38:28;;;;;;;;;;;1.20;99.90;;;0.66;92.10;96818.22;10429029;28;2036;-79
2022/02/12 09:43:36;;;;;;;;;;;1.50;99.90;;;0.74;91.23;96828.69;10422889;28;2083;-79
2022/02/12 09:48:41;;;;;;;;;;;1.60;99.90;;;0.81;90.30;96805.75;10415112;28;2000;-79
2022/02/12 09:53:44;;;;;;;;;;;1.70;99.90;;;0.95;89.47;96804.88;10425228;28;2151;-80
2022/02/12 09:58:53;;;;;;;;;;;1.80;99.90;;;1.24;88.46;96795.19;10418656;28;1936;-79
2022/02/12 10:03:56;;;;;;;;;;;2.00;99.90;;;1.33;87.83;96788.75;10418283;28;1868;-78
2022/02/12 10:08:59;;;;;;;;;;;2.20;99.90;;;1.46;86.39;96804.75;10424889;28;1856;-81
2022/02/12 10:14:02;;;;;;;;;;;2.20;99.90;;;1.60;81.59;96803.88;10420605;28;1918;-79
2022/02/12 10:19:06;;;;;;;;;;;2.40;99.90;;;1.85;75.02;96792.84;10424086;28;1941;-81
2022/02/12 10:24:09;;;;;;;;;;;2.70;99.90;;;2.03;72.55;96785.19;10425378;28;1923;-78
2022/02/12 10:29:12;;;;;;;;;;;2.80;99.90;;;2.11;69.36;96769.13;10426638;28;1979;-81
2022/02/12 10:34:16;;;;;;;;;;;2.90;99.90;;;2.29;67.43;96773.94;10428481;28;1913;-81
2022/02/12 10:39:20;;;;;;;;;;;3.20;99.90;;;2.23;64.46;96758.78;10427786;28;1888;-79
2022/02/12 10:44:23;;;;;;;;;;;3.20;99.90;;;2.33;62.02;96761.06;10409237;28;2055;-80
2022/02/12 10:49:26;;;;;;;;;;;3.30;99.90;;;2.31;63.47;96749.84;10452356;28;1992;-80
2022/02/12 10:54:29;;;;;;;;;;;3.20;99.90;;;2.40;62.80;96727.41;10426261;28;1931;-80
2022/02/12 10:59:38;;;;;;;;;;;3.20;99.90;;;2.46;61.89;96726.63;10419156;28;1849;-79
2022/02/12 11:04:41;;;;;;;;;;;3.40;99.90;;;2.56;61.63;96705.03;10418378;28;1853;-82
2022/02/12 11:09:45;;;;;;;;;;;3.40;99.90;;;2.79;59.17;96704.66;10426353;28;1889;-82
2022/02/12 11:14:48;;;;;;;;;;;3.90;99.90;;;2.81;59.20;96689.34;10425123;28;1979;-79
2022/02/12 11:19:52;;;;;;;;;;;3.70;99.90;;;2.87;59.54;96675.25;10437095;28;2011;-80
2022/02/12 11:24:57;;;;;;;;;;;3.80;99.90;;;2.97;59.82;96673.81;10422767;28;1514;-80
2022/02/12 11:30:01;;;;;;;;;;;3.80;99.90;;;3.08;59.58;96672.41;10429034;28;1944;-79
2022/02/12 11:35:06;;;;;;;;;;;;;;;2.87;60.54;96670.78;10420960;28;1973;-82
2022/02/12 11:40:14;;;;;;;;;;;;;;;3.05;59.22;96656.84;10426576;28;1702;-82
2022/02/12 11:45:21;;;;;;;;;;;;;;;3.04;58.69;96649.91;10420789;28;1539;-81
2022/02/12 11:50:26;;;;;;;;;;;;;;;3.18;59.47;96640.94;10423864;28;2004;-79
2022/02/12 11:55:31;;;;;;;;;;;;;;;3.22;59.20;96634.19;10435895;28;1282;-81
2022/02/12 12:00:46;;;;;;;;;;;;;;;3.21;57.74;96619.25;10425071;28;1588;-79
2022/02/12 12:05:49;;;;;;;;;;;;;;;3.09;56.40;96625.41;10428644;28;1540;-81
2022/02/12 12:10:53;;;;;;;;;;;;;;;3.19;57.62;96623.16;10423191;28;1953;-81
2022/02/12 12:15:57;;;;;;;;;;;;;;;3.32;58.53;96614.34;10437087;28;1470;-86
2022/02/12 12:21:03;;;;;;;;;;;;;;;3.28;58.07;96618.44;10460132;22;3479;-67
2022/02/12 12:26:07;;;;;;;;;;;;;;;3.28;58.92;96613.13;10467572;28;1468;-67
2022/02/12 12:31:12;;;;;;;;;;;;;;;3.48;59.23;96605.91;10472141;28;1916;-66
2022/02/12 12:36:18;;;;;;;;;;;;;;;3.43;58.23;96590.59;10464431;28;1575;-67
2022/02/12 12:41:21;;;;;;;;;;;;;;;3.43;59.67;96584.47;10462235;28;1904;-68
2022/02/12 12:46:25;;;;;;;;;;;;;;;3.46;60.66;96578.75;10463872;28;1856;-67
2022/02/12 12:51:28;;;;;;;;;;;;;;;3.52;59.15;96577.91;10458470;28;2014;-68
2022/02/12 12:56:32;;;;;;;;;;;;;;;3.74;58.84;96567.78;10456914;28;1849;-68
2022/02/12 13:01:35;;;;;;;;;;;;;;;3.57;57.90;96556.84;10459692;28;2071;-67
2022/02/12 13:06:39;;;;;;;;;;;;;;;3.64;59.01;96554.16;10468112;28;1927;-68
2022/02/12 13:11:43;;;;;;;;;;;;;;;3.73;58.57;96548.38;10449693;28;1915;-67
2022/02/12 13:16:48;;;;;;;;;;;;;;;3.63;58.91;96542.69;10448248;28;1968;-68
2022/02/12 13:21:52;;;;;;;;;;;;;;;3.72;58.89;96538.75;10449791;28;1856;-67
2022/02/12 13:26:56;;;;;;;;;;;;;;;3.78;59.29;96540.56;10451352;28;1896;-67
2022/02/12 13:32:01;;;;;;;;;;;;;;;3.80;58.53;96533.19;10446064;28;1918;-68
2022/02/12 13:37:04;;;;;;;;;;;;;;;3.82;58.26;96535.66;10447088;28;1737;-68
2022/02/12 13:42:09;;;;;;;;;;;;;;;3.78;58.59;96524.63;10447198;28;1865;-69
2022/02/12 13:47:13;;;;;;;;;;;;;;;3.90;58.30;96515.97;10443962;28;1848;-66
2022/02/12 13:52:17;;;;;;;;;;;;;;;3.95;56.80;96514.31;10446168;28;1989;-68
2022/02/12 13:57:20;;;;;;;;;;;;;;;3.94;56.41;96507.34;10445890;28;1995;-69
2022/02/12 14:02:25;;;;;;;;;;;;;;;3.96;56.77;96499.16;10447250;28;1843;-68
2022/02/12 14:07:28;;;;;;;;;;;;;;;3.89;56.79;96499.19;10445886;28;1761;-67
2022/02/12 14:12:31;;;;;;;;;;;;;;;4.13;56.23;96500.25;10445414;28;1907;-69
2022/02/12 14:17:35;;;;;;;;;;;;;;;4.09;56.78;96491.09;10445377;28;1941;-66
2022/02/12 14:22:38;;;;;;;;;;;;;;;4.10;56.17;96482.06;10442164;28;1889;-68
2022/02/12 14:27:42;;;;;;;;;;;;;;;4.08;55.02;96476.16;10444141;28;1900;-68
2022/02/12 14:32:48;;;;;;;;;;;;;;;4.02;54.51;96493.00;10460837;28;2060;-68
2022/02/12 14:37:51;;;;;;;;;;;;;;;3.93;55.47;96472.97;10443468;28;1848;-67
2022/02/12 14:42:54;;;;;;;;;;;;;;;3.92;55.91;96476.66;10449846;28;1933;-66
2022/02/12 14:47:59;;;;;;;;;;;;;;;3.94;57.14;96474.59;10452712;28;1888;-68
2022/02/12 14:53:02;;;;;;;;;;;;;;;4.01;57.00;96470.06;10439004;28;1942;-67
2022/02/12 14:58:06;;;;;;;;;;;;;;;4.02;55.37;96469.84;10443256;28;1874;-67
2022/02/12 15:03:10;;;;;;;;;;;;;;;3.96;56.26;96469.91;10443706;28;1844;-67
2022/02/12 15:08:14;;;;;;;;;;;;;;;3.93;56.56;96463.16;10447162;28;1804;-67
2022/02/12 15:13:18;;;;;;;;;;;;;;;3.91;56.68;96464.41;10445432;28;1985;-67
2022/02/12 15:18:21;;;;;;;;;;;;;;;3.83;57.28;96459.34;10453388;28;1481;-69
2022/02/12 15:23:25;;;;;;;;;;;;;;;3.78;57.80;96450.16;10465511;28;1452;-69
2022/02/12 15:28:29;;;;;;;;;;;;;;;3.74;58.78;96446.28;10472928;28;1698;-69
2022/02/12 15:33:32;;;;;;;;;;;;;;;3.75;58.16;96447.94;10464211;28;1949;-68
2022/02/12 15:38:36;;;;;;;;;;;;;;;3.69;57.26;96459.44;10464152;28;1968;-67
2022/02/12 15:43:40;;;;;;;;;;;;;;;3.50;58.45;96455.03;10473985;28;1787;-68
2022/02/12 15:48:45;;;;;;;;;;;;;;;3.41;59.06;96456.28;10472858;28;1831;-68
2022/02/12 15:53:48;;;;;;;;;;;;;;;3.31;60.48;96456.75;10465767;28;2001;-67
2022/02/12 15:58:52;;;;;;;;;;;;;;;3.16;61.54;96461.50;10471197;28;1832;-68
2022/02/12 16:03:57;;;;;;;;;;;;;;;3.09;61.39;96466.84;10473672;28;1822;-69
2022/02/12 16:09:01;;;;;;;;;;;;;;;2.87;62.82;96463.63;10463545;28;1929;-68
2022/02/12 16:14:04;;;;;;;;;;;;;;;2.80;64.87;96459.34;10471161;28;1888;-68
2022/02/12 16:19:07;;;;;;;;;;;;;;;2.69;66.36;96472.25;10474607;28;1790;-67
2022/02/12 16:24:11;;;;;;;;;;;;;;;2.38;67.61;96464.13;10470407;28;2056;-68
2022/02/12 16:29:15;;;;;;;;;;;;;;;2.32;68.88;96465.75;10466698;28;1707;-68
2022/02/12 16:34:20;;;;;;;;;;;;;;;2.24;69.98;96467.81;10445103;28;1921;-68
2022/02/12 16:39:24;;;;;;;;;;;;;;;2.26;70.27;96453.31;10444666;28;2032;-69
2022/02/12 16:44:31;;;;;;;;;;;;;;;2.24;70.87;96458.00;10442685;28;1913;-68
2022/02/12 16:49:39;;;;;;;;;;;;;;;2.06;72.50;96458.59;10446407;28;3405;-66
2022/02/12 16:54:42;;;;;;;;;;;;;;;1.94;72.97;96456.75;10452071;28;1918;-67
2022/02/12 16:59:46;;;;;;;;;;;;;;;1.87;74.30;96451.44;10464325;28;1842;-68
2022/02/12 17:04:49;;;;;;;;;;;;;;;1.95;74.64;96459.19;10442163;28;1838;-68
2022/02/12 17:09:53;;;;;;;;;;;;;;;1.87;75.33;96457.56;10447582;28;1946;-68
2022/02/12 17:15:07;;;;;;;;;;;;;;;1.77;76.57;96464.25;10446531;28;1914;-67
2022/02/12 17:20:11;;;;;;;;;;;;;;;1.57;77.93;96456.28;10447958;28;1829;-67
2022/02/12 17:25:14;;;;;;;;;;;;;;;1.53;78.64;96452.41;10450101;28;1742;-67
2022/02/12 17:30:18;;;;;;;;;;;;;;;1.44;79.85;96451.75;10446176;28;1915;-67
2022/02/12 17:35:22;;;;;;;;;;;;;;;1.48;80.22;96452.19;10446127;28;1983;-68
2022/02/12 17:40:25;;;;;;;;;;;;;;;1.38;80.77;96455.22;10445789;28;2011;-68
2022/02/12 17:45:30;;;;;;;;;;;;;;;1.44;83.86;96454.41;10445372;28;1929;-68
2022/02/12 17:50:33;;;;;;;;;;;;;;;1.44;81.53;96456.25;10444049;28;1840;-67
2022/02/12 17:55:37;;;;;;;;;;;;;;;1.24;83.19;96456.19;10447293;28;1914;-66
2022/02/12 18:00:43;;;;;;;;;;;;;;;1.25;83.55;96452.50;10444530;28;1841;-67
2022/02/12 18:05:47;;;;;;;;;;;;;;;1.05;85.23;96447.16;10443564;28;1820;-68
2022/02/12 18:10:51;;;;;;;;;;;;;;;0.81;86.98;96448.44;10452980;28;1798;-68
2022/02/12 18:15:54;;;;;;;;;;;;;;;1.01;86.39;96440.59;10460641;28;1957;-67
2022/02/12 18:20:58;;;;;;;;;;;;;;;0.85;86.92;96430.34;10454032;28;1905;-67
2022/02/12 18:26:02;;;;;;;;;;;;;;;0.87;87.27;96434.44;10440344;28;1834;-68
2022/02/12 18:31:05;;;;;;;;;;;;;;;0.81;88.17;96420.16;10442659;28;1882;-69
2022/02/12 18:36:09;;;;;;;;;;;;;;;0.68;89.22;96416.63;10446812;28;1927;-69
2022/02/12 18:41:12;;;;;;;;;;;;;;;0.66;89.71;96418.66;10442446;28;1850;-66
2022/02/12 18:46:16;;;;;;;;;;;;;;;0.51;89.24;96414.31;10441366;28;1862;-66
2022/02/12 18:51:20;;;;;;;;;;;;;;;0.45;88.13;96412.44;10442207;28;1821;-68
2022/02/12 18:56:24;;;;;;;;;;;;;;;0.48;88.55;96404.09;10445555;28;1953;-67
2022/02/12 19:01:27;;;;;;;;;;;;;;;0.31;87.65;96408.06;10445532;28;1904;-68
2022/02/12 19:06:31;;;;;;;;;;;;;;;0.43;86.29;96389.81;10456997;28;1891;-68
2022/02/12 19:11:35;;;;;;;;;;;;;;;0.33;86.87;96390.19;10441078;28;2011;-68
2022/02/12 19:16:39;;;;;;;;;;;;;;;0.40;85.38;96393.69;10442701;28;1981;-68
2022/02/12 19:21:42;;;;;;;;;;;;;;;0.41;83.32;96387.38;10440211;28;1814;-68
2022/02/12 19:26:46;;;;;;;;;;;;;;;0.16;84.96;96388.84;10441837;28;1827;-68
2022/02/12 19:31:51;;;;;;;;;;;;;;;0.05;85.08;96386.72;10438786;28;2246;-69
2022/02/12 19:36:54;;;;;;;;;;;;;;;0.21;83.72;96386.44;10428611;28;2063;-68
2022/02/12 19:41:57;;;;;;;;;;;;;;;0.36;81.66;96379.22;10441034;28;1915;-66
2022/02/12 19:47:03;;;;;;;;;;;;;;;0.16;82.14;96373.81;10439660;28;1893;-68
2022/02/12 19:52:06;;;;;;;;;;;;;;;-0.04;83.80;96373.69;10442459;28;1989;-66
2022/02/12 19:57:10;;;;;;;;;;;;;;;0.03;82.67;96376.38;10473928;28;1965;-69
2022/02/12 20:02:13;;;;;;;;;;;;;;;0.00;82.98;96374.13;10449218;28;1818;-66
2022/02/12 20:07:17;;;;;;;;;;;;;;;0.03;82.08;96373.72;10436317;28;1842;-66
2022/02/12 20:12:20;;;;;;;;;;;;;;;-0.18;84.31;96366.66;10442312;28;1815;-66
2022/02/12 20:17:24;;;;;;;;;;;;;;;-0.34;85.08;96367.75;10439624;28;1993;-66
2022/02/12 20:22:28;;;;;;;;;;;;;;;-0.41;86.88;96368.69;10441078;28;1818;-67
2022/02/12 20:27:32;;;;;;;;;;;;;;;-0.48;86.71;96367.81;10447964;28;1816;-68
2022/02/12 20:32:36;;;;;;;;;;;;;;;-0.51;87.29;96361.09;10451928;28;1979;-68
2022/02/12 20:37:39;;;;;;;;;;;;;;;-0.53;87.40;96349.91;10449898;28;1848;-67
2022/02/12 20:42:42;;;;;;;;;;;;;;;-0.40;86.13;96346.56;10453353;28;1897;-67
2022/02/12 20:47:46;;;;;;;;;;;;;;;-0.40;86.40;96347.38;10451461;28;1465;-66
2022/02/12 20:52:50;;;;;;;;;;;;;;;-0.55;86.99;96347.47;10444476;28;2301;-65
2022/02/12 20:57:53;;;;;;;;;;;;;;;-0.58;87.24;96344.38;10443592;28;2013;-66
2022/02/12 21:02:57;;;;;;;;;;;;;;;-0.60;87.18;96344.56;10442634;28;1877;-67
2022/02/12 21:08:01;;;;;;;;;;;;;;;-0.71;87.52;96342.41;10440732;28;1858;-68
2022/02/12 21:13:04;;;;;;;;;;;;;;;-0.75;88.37;96335.09;10443424;28;1914;-68
2022/02/12 21:18:09;;;;;;;;;;;;;;;-0.74;87.49;96339.34;10444635;28;1795;-65
2022/02/12 21:23:12;;;;;;;;;;;;;;;-0.83;87.79;96336.00;10445325;28;1873;-67
2022/02/12 21:28:16;;;;;;;;;;;;;;;-0.83;88.14;96342.13;10447663;28;1875;-66
2022/02/12 21:33:20;;;;;;;;;;;;;;;-0.87;88.40;96343.50;10452389;28;1987;-68
2022/02/12 21:38:24;;;;;;;;;;;;;;;-0.82;87.54;96338.47;10452092;28;1801;-67
2022/02/12 21:43:28;;;;;;;;;;;;;;;-0.85;88.41;96332.75;10451329;28;1713;-68
2022/02/12 21:48:32;;;;;;;;;;;;;;;-0.96;88.81;96336.69;10454848;28;1694;-68
2022/02/12 21:53:36;;;;;;;;;;;;;;;-0.99;88.80;96344.19;10451702;28;1917;-67
2022/02/12 21:58:41;;;;;;;;;;;;;;;-1.10;88.84;96341.03;10450891;28;1844;-69
2022/02/12 22:03:44;;;;;;;;;;;;;;;-1.00;89.50;96339.91;10452536;28;1914;-68
2022/02/12 22:09:08;;;;;;;;;;;;;;;-1.04;88.77;96338.66;10464193;28;1841;-70
2022/02/12 22:14:12;;;;;;;;;;;;;;;-1.11;90.02;96334.13;10460929;28;1914;-73
2022/02/12 22:19:15;;;;;;;;;;;;;;;-1.18;90.13;96330.59;10446257;28;1788;-70
2022/02/12 22:24:19;;;;;;;;;;;;;;;-1.21;90.67;96333.63;10445069;28;1822;-68
2022/02/12 22:29:23;;;;;;;;;;;;;;;-1.28;90.98;96337.97;10442146;28;1855;-69
2022/02/12 22:34:28;;;;;;;;;;;;;;;-1.35;91.34;96326.53;10440373;28;1987;-69
2022/02/12 22:39:32;;;;;;;;;;;;;;;-1.40;91.92;96328.91;10445114;28;1805;-69
2022/02/12 22:44:35;;;;;;;;;;;;;;;-1.48;92.72;96326.38;10441453;28;1759;-68
2022/02/12 22:49:39;;;;;;;;;;;;;;;-1.52;92.68;96327.78;10443078;28;1825;-68
2022/02/12 22:54:42;;;;;;;;;;;;;;;-1.49;92.36;96315.03;10443426;28;1918;-68
2022/02/12 22:59:46;;;;;;;;;;;;;;;-1.42;92.10;96317.72;10440492;28;1897;-69
2022/02/12 23:04:51;;;;;;;;;;;;;;;-1.45;92.44;96323.38;10438921;28;1858;-68
2022/02/12 23:09:55;;;;;;;;;;;;;;;-1.51;91.09;96318.84;10439834;28;1860;-69
2022/02/12 23:14:58;;;;;;;;;;;;;;;-1.53;91.74;96312.94;10442310;28;1910;-67
2022/02/12 23:20:02;;;;;;;;;;;;;;;-1.56;92.12;96319.41;10440367;28;1832;-69
2022/02/12 23:25:13;;;;;;;;;;;;;;;-1.55;91.79;96314.94;10442252;28;1803;-69
2022/02/12 23:30:17;;;;;;;;;;;;;;;-1.57;92.14;96306.41;10439912;28;1819;-68
2022/02/12 23:35:20;;;;;;;;;;;;;;;-1.59;91.64;96300.47;10440467;28;2077;-69
2022/02/12 23:40:24;;;;;;;;;;;;;;;-1.63;91.93;96292.97;10444879;28;1811;-69
2022/02/12 23:45:28;;;;;;;;;;;;;;;-1.62;91.01;96288.50;10441226;28;1765;-68
2022/02/12 23:50:31;;;;;;;;;;;;;;;-1.49;90.94;96287.84;10442414;28;1860;-70
2022/02/12 23:55:35;;;;;;;;;;;;;;;-1.60;89.66;96290.94;10437732;28;1914;-70
